sensor_id;sensor_type;location;lat;lon;timestamp;P1;durP1;ratioP1;P2;durP2;ratioP2
4021;SDS011;2025;48.260;16.432;2023-05-02T00:00:26;7.90;;;3.15;;
4021;SDS011;2025;48.260;16.432;2023-05-02T00:02:53;8.23;;;3.35;;
4021;SDS011;2025;48.260;16.432;2023-05-02T00:05:20;7.20;;;3.83;;
4021;SDS011;2025;48.260;16.432;2023-05-02T00:07:47;8.43;;;3.47;;
4021;SDS011;2025;48.260;16.432;2023-05-02T00:10:14;6.75;;;3.67;;
4021;SDS011;2025;48.260;16.432;2023-05-02T00:12:41;7.18;;;3.67;;
4021;SDS011;2025;48.260;16.432;2023-05-02T00:15:10;7.35;;;3.15;;
4021;SDS011;2025;48.260;16.432;2023-05-02T00:17:38;7.75;;;3.58;;
4021;SDS011;2025;48.260;16.432;2023-05-02T00:20:06;9.32;;;4.25;;
4021;SDS011;2025;48.260;16.432;2023-05-02T00:22:34;9.65;;;3.90;;
4021;SDS011;2025;48.260;16.432;2023-05-02T00:25:01;7.22;;;3.88;;
4021;SDS011;2025;48.260;16.432;2023-05-02T00:27:28;7.13;;;3.75;;
4021;SDS011;2025;48.260;16.432;2023-05-02T00:29:57;9.20;;;3.80;;
4021;SDS011;2025;48.260;16.432;2023-05-02T00:32:26;9.13;;;4.05;;
4021;SDS011;2025;48.260;16.432;2023-05-02T00:34:53;7.57;;;4.10;;
4021;SDS011;2025;48.260;16.432;2023-05-02T00:37:20;7.70;;;3.42;;
4021;SDS011;2025;48.260;16.432;2023-05-02T00:39:51;7.53;;;3.10;;
4021;SDS011;2025;48.260;16.432;2023-05-02T00:42:18;8.02;;;4.03;;
4021;SDS011;2025;48.260;16.432;2023-05-02T00:44:45;8.15;;;4.30;;
4021;SDS011;2025;48.260;16.432;2023-05-02T00:47:13;9.73;;;4.68;;
4021;SDS011;2025;48.260;16.432;2023-05-02T00:49:41;9.20;;;3.65;;
4021;SDS011;2025;48.260;16.432;2023-05-02T00:52:08;8.27;;;4.00;;
4021;SDS011;2025;48.260;16.432;2023-05-02T00:54:35;7.43;;;3.95;;
4021;SDS011;2025;48.260;16.432;2023-05-02T00:57:03;7.95;;;5.13;;
4021;SDS011;2025;48.260;16.432;2023-05-02T00:59:30;8.13;;;3.72;;
4021;SDS011;2025;48.260;16.432;2023-05-02T01:01:59;6.57;;;2.97;;
4021;SDS011;2025;48.260;16.432;2023-05-02T01:04:43;7.78;;;3.45;;
4021;SDS011;2025;48.260;16.432;2023-05-02T01:07:26;7.93;;;3.83;;
4021;SDS011;2025;48.260;16.432;2023-05-02T01:10:10;8.82;;;3.72;;
4021;SDS011;2025;48.260;16.432;2023-05-02T01:12:46;8.15;;;4.00;;
4021;SDS011;2025;48.260;16.432;2023-05-02T01:15:20;11.32;;;4.70;;
4021;SDS011;2025;48.260;16.432;2023-05-02T01:17:48;8.73;;;4.00;;
4021;SDS011;2025;48.260;16.432;2023-05-02T01:20:19;7.80;;;3.95;;
4021;SDS011;2025;48.260;16.432;2023-05-02T01:22:48;9.07;;;4.15;;
4021;SDS011;2025;48.260;16.432;2023-05-02T01:25:21;6.95;;;3.90;;
4021;SDS011;2025;48.260;16.432;2023-05-02T01:28:00;7.93;;;3.65;;
4021;SDS011;2025;48.260;16.432;2023-05-02T01:30:37;8.63;;;4.20;;
4021;SDS011;2025;48.260;16.432;2023-05-02T01:33:06;7.88;;;4.35;;
4021;SDS011;2025;48.260;16.432;2023-05-02T01:35:37;9.32;;;4.72;;
4021;SDS011;2025;48.260;16.432;2023-05-02T01:38:05;8.45;;;4.72;;
4021;SDS011;2025;48.260;16.432;2023-05-02T01:40:33;8.35;;;4.70;;
4021;SDS011;2025;48.260;16.432;2023-05-02T01:43:01;8.68;;;4.85;;
4021;SDS011;2025;48.260;16.432;2023-05-02T01:45:31;10.45;;;4.60;;
4021;SDS011;2025;48.260;16.432;2023-05-02T01:48:03;11.25;;;4.45;;
4021;SDS011;2025;48.260;16.432;2023-05-02T01:50:33;8.18;;;4.72;;
4021;SDS011;2025;48.260;16.432;2023-05-02T01:53:03;8.20;;;4.30;;
4021;SDS011;2025;48.260;16.432;2023-05-02T01:55:32;7.53;;;4.65;;
4021;SDS011;2025;48.260;16.432;2023-05-02T01:58:01;7.93;;;4.20;;
4021;SDS011;2025;48.260;16.432;2023-05-02T02:00:30;7.90;;;3.95;;
4021;SDS011;2025;48.260;16.432;2023-05-02T02:02:59;8.27;;;3.83;;
4021;SDS011;2025;48.260;16.432;2023-05-02T02:05:28;7.70;;;4.15;;
4021;SDS011;2025;48.260;16.432;2023-05-02T02:07:56;7.30;;;3.95;;
4021;SDS011;2025;48.260;16.432;2023-05-02T02:10:23;7.72;;;4.15;;
4021;SDS011;2025;48.260;16.432;2023-05-02T02:12:53;7.40;;;4.82;;
4021;SDS011;2025;48.260;16.432;2023-05-02T02:15:30;10.13;;;4.28;;
4021;SDS011;2025;48.260;16.432;2023-05-02T02:18:01;9.55;;;4.43;;
4021;SDS011;2025;48.260;16.432;2023-05-02T02:20:37;8.13;;;4.00;;
4021;SDS011;2025;48.260;16.432;2023-05-02T02:23:08;8.00;;;3.78;;
4021;SDS011;2025;48.260;16.432;2023-05-02T02:25:37;8.88;;;4.03;;
4021;SDS011;2025;48.260;16.432;2023-05-02T02:28:05;9.68;;;4.47;;
4021;SDS011;2025;48.260;16.432;2023-05-02T02:30:32;8.35;;;4.43;;
4021;SDS011;2025;48.260;16.432;2023-05-02T02:32:59;6.82;;;3.50;;
4021;SDS011;2025;48.260;16.432;2023-05-02T02:35:28;8.52;;;4.55;;
4021;SDS011;2025;48.260;16.432;2023-05-02T02:38:05;9.73;;;3.80;;
4021;SDS011;2025;48.260;16.432;2023-05-02T02:40:40;11.57;;;5.03;;
4021;SDS011;2025;48.260;16.432;2023-05-02T02:43:12;7.22;;;3.67;;
4021;SDS011;2025;48.260;16.432;2023-05-02T02:45:47;8.20;;;4.13;;
4021;SDS011;2025;48.260;16.432;2023-05-02T02:48:24;7.88;;;4.18;;
4021;SDS011;2025;48.260;16.432;2023-05-02T02:50:58;9.40;;;4.60;;
4021;SDS011;2025;48.260;16.432;2023-05-02T02:53:42;7.75;;;4.20;;
4021;SDS011;2025;48.260;16.432;2023-05-02T02:56:19;9.88;;;4.32;;
4021;SDS011;2025;48.260;16.432;2023-05-02T02:58:54;8.48;;;4.00;;
4021;SDS011;2025;48.260;16.432;2023-05-02T03:01:26;9.18;;;3.90;;
4021;SDS011;2025;48.260;16.432;2023-05-02T03:03:56;7.72;;;3.90;;
4021;SDS011;2025;48.260;16.432;2023-05-02T03:06:24;8.48;;;4.10;;
4021;SDS011;2025;48.260;16.432;2023-05-02T03:08:53;7.57;;;3.83;;
4021;SDS011;2025;48.260;16.432;2023-05-02T03:11:20;12.18;;;4.65;;
4021;SDS011;2025;48.260;16.432;2023-05-02T03:13:47;8.52;;;4.47;;
4021;SDS011;2025;48.260;16.432;2023-05-02T03:16:31;8.52;;;4.97;;
4021;SDS011;2025;48.260;16.432;2023-05-02T03:19:01;9.25;;;5.43;;
4021;SDS011;2025;48.260;16.432;2023-05-02T03:21:28;9.43;;;5.90;;
4021;SDS011;2025;48.260;16.432;2023-05-02T03:23:57;8.77;;;4.22;;
4021;SDS011;2025;48.260;16.432;2023-05-02T03:26:25;10.55;;;5.13;;
4021;SDS011;2025;48.260;16.432;2023-05-02T03:28:52;10.13;;;4.20;;
4021;SDS011;2025;48.260;16.432;2023-05-02T03:31:19;9.30;;;4.95;;
4021;SDS011;2025;48.260;16.432;2023-05-02T03:33:47;9.13;;;4.90;;
4021;SDS011;2025;48.260;16.432;2023-05-02T03:36:14;8.52;;;4.40;;
4021;SDS011;2025;48.260;16.432;2023-05-02T03:38:41;8.40;;;4.60;;
4021;SDS011;2025;48.260;16.432;2023-05-02T03:41:10;9.95;;;4.68;;
4021;SDS011;2025;48.260;16.432;2023-05-02T03:43:36;9.35;;;4.53;;
4021;SDS011;2025;48.260;16.432;2023-05-02T03:46:04;10.57;;;5.30;;
4021;SDS011;2025;48.260;16.432;2023-05-02T03:48:32;9.85;;;4.82;;
4021;SDS011;2025;48.260;16.432;2023-05-02T03:50:59;11.73;;;5.07;;
4021;SDS011;2025;48.260;16.432;2023-05-02T03:53:27;10.93;;;4.85;;
4021;SDS011;2025;48.260;16.432;2023-05-02T03:55:55;9.80;;;5.18;;
4021;SDS011;2025;48.260;16.432;2023-05-02T03:58:24;10.43;;;5.18;;
4021;SDS011;2025;48.260;16.432;2023-05-02T04:00:52;14.77;;;6.40;;
4021;SDS011;2025;48.260;16.432;2023-05-02T04:03:20;12.73;;;5.97;;
4021;SDS011;2025;48.260;16.432;2023-05-02T04:05:48;12.75;;;6.43;;
4021;SDS011;2025;48.260;16.432;2023-05-02T04:08:17;12.55;;;6.80;;
4021;SDS011;2025;48.260;16.432;2023-05-02T04:10:43;10.77;;;6.32;;
4021;SDS011;2025;48.260;16.432;2023-05-02T04:13:10;10.38;;;5.78;;
4021;SDS011;2025;48.260;16.432;2023-05-02T04:15:39;11.23;;;5.43;;
4021;SDS011;2025;48.260;16.432;2023-05-02T04:18:06;12.15;;;6.47;;
4021;SDS011;2025;48.260;16.432;2023-05-02T04:20:33;12.45;;;6.95;;
4021;SDS011;2025;48.260;16.432;2023-05-02T04:22:59;11.85;;;6.28;;
4021;SDS011;2025;48.260;16.432;2023-05-02T04:25:26;12.90;;;6.05;;
4021;SDS011;2025;48.260;16.432;2023-05-02T04:27:53;11.98;;;6.68;;
4021;SDS011;2025;48.260;16.432;2023-05-02T04:30:20;14.27;;;6.45;;
4021;SDS011;2025;48.260;16.432;2023-05-02T04:32:49;11.38;;;6.32;;
4021;SDS011;2025;48.260;16.432;2023-05-02T04:35:16;12.80;;;6.38;;
4021;SDS011;2025;48.260;16.432;2023-05-02T04:37:43;14.57;;;7.32;;
4021;SDS011;2025;48.260;16.432;2023-05-02T04:40:10;11.93;;;6.30;;
4021;SDS011;2025;48.260;16.432;2023-05-02T04:42:38;11.35;;;6.50;;
4021;SDS011;2025;48.260;16.432;2023-05-02T04:45:05;12.02;;;6.20;;
4021;SDS011;2025;48.260;16.432;2023-05-02T04:47:33;16.00;;;5.95;;
4021;SDS011;2025;48.260;16.432;2023-05-02T04:50:02;13.02;;;6.22;;
4021;SDS011;2025;48.260;16.432;2023-05-02T04:52:29;12.27;;;7.03;;
4021;SDS011;2025;48.260;16.432;2023-05-02T04:54:56;12.32;;;7.28;;
4021;SDS011;2025;48.260;16.432;2023-05-02T04:57:23;11.50;;;5.88;;
4021;SDS011;2025;48.260;16.432;2023-05-02T04:59:50;12.18;;;6.30;;
4021;SDS011;2025;48.260;16.432;2023-05-02T05:02:17;11.95;;;6.70;;
4021;SDS011;2025;48.260;16.432;2023-05-02T05:04:44;11.27;;;6.22;;
4021;SDS011;2025;48.260;16.432;2023-05-02T05:07:12;11.68;;;6.43;;
4021;SDS011;2025;48.260;16.432;2023-05-02T05:09:39;11.15;;;5.85;;
4021;SDS011;2025;48.260;16.432;2023-05-02T05:12:06;10.63;;;5.38;;
4021;SDS011;2025;48.260;16.432;2023-05-02T05:14:33;12.13;;;7.00;;
4021;SDS011;2025;48.260;16.432;2023-05-02T05:17:00;12.75;;;6.63;;
4021;SDS011;2025;48.260;16.432;2023-05-02T05:19:26;15.50;;;8.02;;
4021;SDS011;2025;48.260;16.432;2023-05-02T05:21:53;13.23;;;7.25;;
4021;SDS011;2025;48.260;16.432;2023-05-02T05:24:22;14.18;;;7.25;;
4021;SDS011;2025;48.260;16.432;2023-05-02T05:26:49;14.15;;;7.70;;
4021;SDS011;2025;48.260;16.432;2023-05-02T05:29:15;12.07;;;7.57;;
4021;SDS011;2025;48.260;16.432;2023-05-02T05:31:43;13.15;;;6.97;;
4021;SDS011;2025;48.260;16.432;2023-05-02T05:34:10;12.30;;;6.90;;
4021;SDS011;2025;48.260;16.432;2023-05-02T05:36:38;11.32;;;6.22;;
4021;SDS011;2025;48.260;16.432;2023-05-02T05:39:05;11.30;;;6.38;;
4021;SDS011;2025;48.260;16.432;2023-05-02T05:41:34;12.43;;;6.28;;
4021;SDS011;2025;48.260;16.432;2023-05-02T05:44:02;14.13;;;7.32;;
4021;SDS011;2025;48.260;16.432;2023-05-02T05:46:29;11.77;;;6.13;;
4021;SDS011;2025;48.260;16.432;2023-05-02T05:48:56;13.60;;;6.38;;
4021;SDS011;2025;48.260;16.432;2023-05-02T05:51:23;10.30;;;6.35;;
4021;SDS011;2025;48.260;16.432;2023-05-02T05:53:52;11.23;;;6.32;;
4021;SDS011;2025;48.260;16.432;2023-05-02T05:56:19;11.13;;;5.93;;
4021;SDS011;2025;48.260;16.432;2023-05-02T05:58:47;12.40;;;6.60;;
4021;SDS011;2025;48.260;16.432;2023-05-02T06:01:14;11.77;;;6.32;;
4021;SDS011;2025;48.260;16.432;2023-05-02T06:03:41;10.73;;;6.13;;
4021;SDS011;2025;48.260;16.432;2023-05-02T06:06:08;11.75;;;7.82;;
4021;SDS011;2025;48.260;16.432;2023-05-02T06:08:35;12.57;;;5.78;;
4021;SDS011;2025;48.260;16.432;2023-05-02T06:11:02;11.63;;;5.78;;
4021;SDS011;2025;48.260;16.432;2023-05-02T06:13:29;13.82;;;5.97;;
4021;SDS011;2025;48.260;16.432;2023-05-02T06:16:00;10.75;;;6.20;;
4021;SDS011;2025;48.260;16.432;2023-05-02T06:18:27;11.65;;;6.05;;
4021;SDS011;2025;48.260;16.432;2023-05-02T06:20:55;13.10;;;6.32;;
4021;SDS011;2025;48.260;16.432;2023-05-02T06:23:22;12.25;;;6.47;;
4021;SDS011;2025;48.260;16.432;2023-05-02T06:25:49;11.40;;;6.10;;
4021;SDS011;2025;48.260;16.432;2023-05-02T06:28:16;10.30;;;6.05;;
4021;SDS011;2025;48.260;16.432;2023-05-02T06:30:43;11.73;;;6.18;;
4021;SDS011;2025;48.260;16.432;2023-05-02T06:33:11;11.15;;;5.63;;
4021;SDS011;2025;48.260;16.432;2023-05-02T06:35:38;11.32;;;6.05;;
4021;SDS011;2025;48.260;16.432;2023-05-02T06:38:05;10.15;;;5.85;;
4021;SDS011;2025;48.260;16.432;2023-05-02T06:40:33;10.52;;;6.38;;
4021;SDS011;2025;48.260;16.432;2023-05-02T06:43:01;12.63;;;6.90;;
4021;SDS011;2025;48.260;16.432;2023-05-02T06:45:29;11.30;;;6.38;;
4021;SDS011;2025;48.260;16.432;2023-05-02T06:47:56;12.73;;;7.10;;
4021;SDS011;2025;48.260;16.432;2023-05-02T06:50:24;12.73;;;6.82;;
4021;SDS011;2025;48.260;16.432;2023-05-02T06:52:51;11.63;;;6.95;;
4021;SDS011;2025;48.260;16.432;2023-05-02T06:55:18;11.38;;;6.25;;
4021;SDS011;2025;48.260;16.432;2023-05-02T06:57:45;12.10;;;7.38;;
4021;SDS011;2025;48.260;16.432;2023-05-02T07:00:13;11.57;;;7.07;;
4021;SDS011;2025;48.260;16.432;2023-05-02T07:02:41;13.32;;;7.15;;
4021;SDS011;2025;48.260;16.432;2023-05-02T07:05:08;12.75;;;7.00;;
4021;SDS011;2025;48.260;16.432;2023-05-02T07:07:37;13.20;;;6.85;;
4021;SDS011;2025;48.260;16.432;2023-05-02T07:10:04;14.15;;;7.63;;
4021;SDS011;2025;48.260;16.432;2023-05-02T07:12:32;12.35;;;6.47;;
4021;SDS011;2025;48.260;16.432;2023-05-02T07:14:59;13.25;;;7.38;;
4021;SDS011;2025;48.260;16.432;2023-05-02T07:17:26;13.02;;;7.38;;
4021;SDS011;2025;48.260;16.432;2023-05-02T07:19:53;12.13;;;7.55;;
4021;SDS011;2025;48.260;16.432;2023-05-02T07:22:20;13.95;;;7.85;;
4021;SDS011;2025;48.260;16.432;2023-05-02T07:24:55;13.52;;;7.13;;
4021;SDS011;2025;48.260;16.432;2023-05-02T07:27:23;12.48;;;6.85;;
4021;SDS011;2025;48.260;16.432;2023-05-02T07:29:50;12.57;;;7.47;;
4021;SDS011;2025;48.260;16.432;2023-05-02T07:32:17;16.05;;;7.35;;
4021;SDS011;2025;48.260;16.432;2023-05-02T07:34:45;10.98;;;5.88;;
4021;SDS011;2025;48.260;16.432;2023-05-02T07:37:12;11.82;;;6.70;;
4021;SDS011;2025;48.260;16.432;2023-05-02T07:39:39;10.95;;;6.57;;
4021;SDS011;2025;48.260;16.432;2023-05-02T07:42:08;11.93;;;6.63;;
4021;SDS011;2025;48.260;16.432;2023-05-02T07:44:35;10.93;;;5.88;;
4021;SDS011;2025;48.260;16.432;2023-05-02T07:47:02;11.00;;;6.50;;
4021;SDS011;2025;48.260;16.432;2023-05-02T07:49:29;10.32;;;6.00;;
4021;SDS011;2025;48.260;16.432;2023-05-02T07:51:56;14.80;;;6.88;;
4021;SDS011;2025;48.260;16.432;2023-05-02T07:54:23;10.40;;;5.97;;
4021;SDS011;2025;48.260;16.432;2023-05-02T07:56:50;12.90;;;6.47;;
4021;SDS011;2025;48.260;16.432;2023-05-02T07:59:19;10.95;;;6.18;;
4021;SDS011;2025;48.260;16.432;2023-05-02T08:01:46;10.30;;;5.65;;
4021;SDS011;2025;48.260;16.432;2023-05-02T08:04:13;11.02;;;5.57;;
4021;SDS011;2025;48.260;16.432;2023-05-02T08:06:40;10.27;;;5.63;;
4021;SDS011;2025;48.260;16.432;2023-05-02T08:09:07;9.75;;;5.20;;
4021;SDS011;2025;48.260;16.432;2023-05-02T08:11:34;11.18;;;6.55;;
4021;SDS011;2025;48.260;16.432;2023-05-02T08:14:01;10.98;;;5.47;;
4021;SDS011;2025;48.260;16.432;2023-05-02T08:16:29;9.82;;;5.38;;
4021;SDS011;2025;48.260;16.432;2023-05-02T08:18:56;8.98;;;5.32;;
4021;SDS011;2025;48.260;16.432;2023-05-02T08:21:23;9.88;;;4.70;;
4021;SDS011;2025;48.260;16.432;2023-05-02T08:23:52;9.98;;;5.50;;
4021;SDS011;2025;48.260;16.432;2023-05-02T08:26:23;10.32;;;5.78;;
4021;SDS011;2025;48.260;16.432;2023-05-02T08:28:50;9.43;;;4.82;;
4021;SDS011;2025;48.260;16.432;2023-05-02T08:31:17;10.20;;;5.50;;
4021;SDS011;2025;48.260;16.432;2023-05-02T08:33:46;9.27;;;5.30;;
4021;SDS011;2025;48.260;16.432;2023-05-02T08:36:13;9.43;;;4.90;;
4021;SDS011;2025;48.260;16.432;2023-05-02T08:38:41;9.50;;;5.22;;
4021;SDS011;2025;48.260;16.432;2023-05-02T08:41:09;9.35;;;4.57;;
4021;SDS011;2025;48.260;16.432;2023-05-02T08:43:37;8.05;;;4.88;;
4021;SDS011;2025;48.260;16.432;2023-05-02T08:46:05;10.73;;;5.53;;
4021;SDS011;2025;48.260;16.432;2023-05-02T08:48:34;8.77;;;4.82;;
4021;SDS011;2025;48.260;16.432;2023-05-02T08:51:03;9.63;;;5.10;;
4021;SDS011;2025;48.260;16.432;2023-05-02T08:53:33;8.35;;;4.63;;
4021;SDS011;2025;48.260;16.432;2023-05-02T08:56:01;10.00;;;5.47;;
4021;SDS011;2025;48.260;16.432;2023-05-02T08:58:28;9.65;;;5.30;;
4021;SDS011;2025;48.260;16.432;2023-05-02T09:00:56;9.95;;;4.60;;
4021;SDS011;2025;48.260;16.432;2023-05-02T09:03:28;9.07;;;5.07;;
4021;SDS011;2025;48.260;16.432;2023-05-02T09:06:00;8.07;;;3.90;;
4021;SDS011;2025;48.260;16.432;2023-05-02T09:08:32;9.95;;;5.18;;
4021;SDS011;2025;48.260;16.432;2023-05-02T09:11:00;9.85;;;4.63;;
4021;SDS011;2025;48.260;16.432;2023-05-02T09:13:29;8.52;;;4.18;;
4021;SDS011;2025;48.260;16.432;2023-05-02T09:15:57;9.82;;;4.97;;
4021;SDS011;2025;48.260;16.432;2023-05-02T09:18:28;9.88;;;5.45;;
4021;SDS011;2025;48.260;16.432;2023-05-02T09:20:57;8.68;;;4.35;;
4021;SDS011;2025;48.260;16.432;2023-05-02T09:23:33;8.88;;;4.40;;
4021;SDS011;2025;48.260;16.432;2023-05-02T09:26:02;9.02;;;4.80;;
4021;SDS011;2025;48.260;16.432;2023-05-02T09:28:37;9.25;;;4.30;;
4021;SDS011;2025;48.260;16.432;2023-05-02T09:31:06;9.65;;;4.57;;
4021;SDS011;2025;48.260;16.432;2023-05-02T09:33:34;8.95;;;4.07;;
4021;SDS011;2025;48.260;16.432;2023-05-02T09:36:02;9.48;;;4.53;;
4021;SDS011;2025;48.260;16.432;2023-05-02T09:38:29;9.23;;;4.95;;
4021;SDS011;2025;48.260;16.432;2023-05-02T09:40:58;10.00;;;5.05;;
4021;SDS011;2025;48.260;16.432;2023-05-02T09:43:27;9.30;;;4.72;;
4021;SDS011;2025;48.260;16.432;2023-05-02T09:45:55;9.10;;;4.13;;
4021;SDS011;2025;48.260;16.432;2023-05-02T09:48:23;9.68;;;4.57;;
4021;SDS011;2025;48.260;16.432;2023-05-02T09:50:50;9.80;;;4.32;;
4021;SDS011;2025;48.260;16.432;2023-05-02T09:53:17;9.38;;;4.05;;
4021;SDS011;2025;48.260;16.432;2023-05-02T09:55:44;8.73;;;5.03;;
4021;SDS011;2025;48.260;16.432;2023-05-02T09:58:20;8.90;;;4.13;;
4021;SDS011;2025;48.260;16.432;2023-05-02T10:00:48;8.02;;;3.95;;
4021;SDS011;2025;48.260;16.432;2023-05-02T10:03:16;9.38;;;4.57;;
4021;SDS011;2025;48.260;16.432;2023-05-02T10:05:44;9.52;;;4.88;;
4021;SDS011;2025;48.260;16.432;2023-05-02T10:08:12;10.23;;;4.97;;
4021;SDS011;2025;48.260;16.432;2023-05-02T10:10:43;9.38;;;4.13;;
4021;SDS011;2025;48.260;16.432;2023-05-02T10:13:12;8.57;;;4.45;;
4021;SDS011;2025;48.260;16.432;2023-05-02T10:15:47;11.23;;;5.43;;
4021;SDS011;2025;48.260;16.432;2023-05-02T10:18:16;8.60;;;4.15;;
4021;SDS011;2025;48.260;16.432;2023-05-02T10:23:19;9.65;;;4.70;;
4021;SDS011;2025;48.260;16.432;2023-05-02T10:25:47;7.93;;;4.20;;
4021;SDS011;2025;48.260;16.432;2023-05-02T10:28:14;9.75;;;5.45;;
4021;SDS011;2025;48.260;16.432;2023-05-02T10:30:42;11.77;;;5.15;;
4021;SDS011;2025;48.260;16.432;2023-05-02T10:33:11;12.15;;;5.28;;
4021;SDS011;2025;48.260;16.432;2023-05-02T10:35:42;9.73;;;5.28;;
4021;SDS011;2025;48.260;16.432;2023-05-02T10:38:10;9.40;;;4.57;;
4021;SDS011;2025;48.260;16.432;2023-05-02T10:40:38;10.98;;;5.10;;
4021;SDS011;2025;48.260;16.432;2023-05-02T10:43:07;8.73;;;4.47;;
4021;SDS011;2025;48.260;16.432;2023-05-02T10:45:39;10.07;;;5.47;;
4021;SDS011;2025;48.260;16.432;2023-05-02T10:48:14;10.50;;;5.45;;
4021;SDS011;2025;48.260;16.432;2023-05-02T10:50:43;9.45;;;4.30;;
4021;SDS011;2025;48.260;16.432;2023-05-02T10:53:21;10.25;;;4.65;;
4021;SDS011;2025;48.260;16.432;2023-05-02T10:58:41;11.07;;;5.63;;
4021;SDS011;2025;48.260;16.432;2023-05-02T11:04:06;10.05;;;5.47;;
4021;SDS011;2025;48.260;16.432;2023-05-02T11:06:34;10.73;;;5.90;;
4021;SDS011;2025;48.260;16.432;2023-05-02T11:12:01;10.23;;;5.30;;
4021;SDS011;2025;48.260;16.432;2023-05-02T11:14:45;11.38;;;5.40;;
4021;SDS011;2025;48.260;16.432;2023-05-02T11:17:14;10.15;;;5.53;;
4021;SDS011;2025;48.260;16.432;2023-05-02T11:22:53;12.30;;;6.20;;
4021;SDS011;2025;48.260;16.432;2023-05-02T11:25:31;12.55;;;5.97;;
4021;SDS011;2025;48.260;16.432;2023-05-02T11:28:03;11.43;;;6.00;;
4021;SDS011;2025;48.260;16.432;2023-05-02T11:30:38;11.07;;;5.65;;
4021;SDS011;2025;48.260;16.432;2023-05-02T11:33:14;10.88;;;5.85;;
4021;SDS011;2025;48.260;16.432;2023-05-02T11:35:44;11.27;;;5.65;;
4021;SDS011;2025;48.260;16.432;2023-05-02T11:38:17;12.32;;;6.40;;
4021;SDS011;2025;48.260;16.432;2023-05-02T11:43:30;11.43;;;5.80;;
4021;SDS011;2025;48.260;16.432;2023-05-02T11:45:58;10.05;;;4.57;;
4021;SDS011;2025;48.260;16.432;2023-05-02T11:48:25;9.93;;;5.00;;
4021;SDS011;2025;48.260;16.432;2023-05-02T11:50:54;9.43;;;4.78;;
4021;SDS011;2025;48.260;16.432;2023-05-02T11:53:24;9.35;;;4.18;;
4021;SDS011;2025;48.260;16.432;2023-05-02T11:55:54;10.57;;;5.57;;
4021;SDS011;2025;48.260;16.432;2023-05-02T11:58:22;9.40;;;4.55;;
4021;SDS011;2025;48.260;16.432;2023-05-02T12:00:50;9.50;;;5.20;;
4021;SDS011;2025;48.260;16.432;2023-05-02T12:10:04;10.25;;;5.47;;
4021;SDS011;2025;48.260;16.432;2023-05-02T12:12:31;10.90;;;5.53;;
4021;SDS011;2025;48.260;16.432;2023-05-02T12:15:01;9.20;;;5.22;;
4021;SDS011;2025;48.260;16.432;2023-05-02T12:17:30;10.35;;;5.00;;
4021;SDS011;2025;48.260;16.432;2023-05-02T12:19:58;9.55;;;5.47;;
4021;SDS011;2025;48.260;16.432;2023-05-02T12:22:26;11.20;;;4.85;;
4021;SDS011;2025;48.260;16.432;2023-05-02T12:24:54;9.90;;;5.45;;
4021;SDS011;2025;48.260;16.432;2023-05-02T12:27:22;12.48;;;6.43;;
4021;SDS011;2025;48.260;16.432;2023-05-02T12:29:49;10.30;;;5.22;;
4021;SDS011;2025;48.260;16.432;2023-05-02T12:32:25;11.18;;;6.00;;
4021;SDS011;2025;48.260;16.432;2023-05-02T12:34:54;9.55;;;4.88;;
4021;SDS011;2025;48.260;16.432;2023-05-02T12:37:21;10.55;;;5.60;;
4021;SDS011;2025;48.260;16.432;2023-05-02T12:39:49;10.38;;;5.35;;
4021;SDS011;2025;48.260;16.432;2023-05-02T12:42:18;10.15;;;5.38;;
4021;SDS011;2025;48.260;16.432;2023-05-02T12:44:48;11.38;;;5.60;;
4021;SDS011;2025;48.260;16.432;2023-05-02T12:47:17;11.85;;;5.65;;
4021;SDS011;2025;48.260;16.432;2023-05-02T12:49:48;10.98;;;5.35;;
4021;SDS011;2025;48.260;16.432;2023-05-02T12:52:16;11.80;;;6.03;;
4021;SDS011;2025;48.260;16.432;2023-05-02T12:54:43;11.25;;;5.70;;
4021;SDS011;2025;48.260;16.432;2023-05-02T12:57:20;11.63;;;5.50;;
4021;SDS011;2025;48.260;16.432;2023-05-02T12:59:51;11.63;;;5.82;;
4021;SDS011;2025;48.260;16.432;2023-05-02T13:02:19;11.80;;;6.40;;
4021;SDS011;2025;48.260;16.432;2023-05-02T13:04:46;9.98;;;5.88;;
4021;SDS011;2025;48.260;16.432;2023-05-02T13:07:14;10.23;;;5.00;;
4021;SDS011;2025;48.260;16.432;2023-05-02T13:09:41;10.60;;;6.15;;
4021;SDS011;2025;48.260;16.432;2023-05-02T13:12:08;10.32;;;5.32;;
4021;SDS011;2025;48.260;16.432;2023-05-02T13:14:35;9.82;;;5.63;;
4021;SDS011;2025;48.260;16.432;2023-05-02T13:17:03;10.18;;;5.85;;
4021;SDS011;2025;48.260;16.432;2023-05-02T13:19:32;10.05;;;6.22;;
4021;SDS011;2025;48.260;16.432;2023-05-02T13:21:59;10.70;;;5.60;;
4021;SDS011;2025;48.260;16.432;2023-05-02T13:24:27;13.25;;;5.65;;
4021;SDS011;2025;48.260;16.432;2023-05-02T13:26:54;10.73;;;5.13;;
4021;SDS011;2025;48.260;16.432;2023-05-02T13:29:21;9.93;;;5.32;;
4021;SDS011;2025;48.260;16.432;2023-05-02T13:31:48;9.88;;;5.35;;
4021;SDS011;2025;48.260;16.432;2023-05-02T13:34:16;11.23;;;6.25;;
4021;SDS011;2025;48.260;16.432;2023-05-02T13:36:43;9.13;;;5.93;;
4021;SDS011;2025;48.260;16.432;2023-05-02T13:39:10;10.55;;;6.50;;
4021;SDS011;2025;48.260;16.432;2023-05-02T13:41:37;9.55;;;5.30;;
4021;SDS011;2025;48.260;16.432;2023-05-02T13:44:04;12.73;;;6.28;;
4021;SDS011;2025;48.260;16.432;2023-05-02T13:46:33;10.15;;;6.57;;
4021;SDS011;2025;48.260;16.432;2023-05-02T13:49:01;11.60;;;5.47;;
4021;SDS011;2025;48.260;16.432;2023-05-02T13:51:30;11.35;;;5.82;;
4021;SDS011;2025;48.260;16.432;2023-05-02T13:53:57;9.80;;;5.50;;
4021;SDS011;2025;48.260;16.432;2023-05-02T13:56:24;10.10;;;5.75;;
4021;SDS011;2025;48.260;16.432;2023-05-02T13:58:51;12.70;;;6.65;;
4021;SDS011;2025;48.260;16.432;2023-05-02T14:01:18;10.40;;;5.90;;
4021;SDS011;2025;48.260;16.432;2023-05-02T14:03:45;11.40;;;5.72;;
4021;SDS011;2025;48.260;16.432;2023-05-02T14:06:12;10.68;;;5.60;;
4021;SDS011;2025;48.260;16.432;2023-05-02T14:08:40;10.02;;;5.75;;
4021;SDS011;2025;48.260;16.432;2023-05-02T14:11:08;11.80;;;6.03;;
4021;SDS011;2025;48.260;16.432;2023-05-02T14:13:35;13.43;;;6.65;;
4021;SDS011;2025;48.260;16.432;2023-05-02T14:16:02;11.77;;;6.60;;
4021;SDS011;2025;48.260;16.432;2023-05-02T14:18:30;12.38;;;6.32;;
4021;SDS011;2025;48.260;16.432;2023-05-02T14:20:57;12.23;;;6.57;;
4021;SDS011;2025;48.260;16.432;2023-05-02T14:23:24;10.85;;;6.28;;
4021;SDS011;2025;48.260;16.432;2023-05-02T14:25:53;11.43;;;5.93;;
4021;SDS011;2025;48.260;16.432;2023-05-02T14:28:21;13.15;;;6.97;;
4021;SDS011;2025;48.260;16.432;2023-05-02T14:30:48;11.93;;;6.32;;
4021;SDS011;2025;48.260;16.432;2023-05-02T14:33:15;13.63;;;6.38;;
4021;SDS011;2025;48.260;16.432;2023-05-02T14:35:42;11.75;;;7.28;;
4021;SDS011;2025;48.260;16.432;2023-05-02T14:38:10;10.07;;;5.57;;
4021;SDS011;2025;48.260;16.432;2023-05-02T14:40:37;10.63;;;6.15;;
4021;SDS011;2025;48.260;16.432;2023-05-02T14:43:05;11.88;;;7.05;;
4021;SDS011;2025;48.260;16.432;2023-05-02T14:45:32;11.50;;;5.85;;
4021;SDS011;2025;48.260;16.432;2023-05-02T14:48:00;11.70;;;5.72;;
4021;SDS011;2025;48.260;16.432;2023-05-02T14:50:26;12.32;;;6.97;;
4021;SDS011;2025;48.260;16.432;2023-05-02T14:52:53;11.77;;;7.18;;
4021;SDS011;2025;48.260;16.432;2023-05-02T14:55:20;11.43;;;7.35;;
4021;SDS011;2025;48.260;16.432;2023-05-02T14:57:48;11.27;;;6.40;;
4021;SDS011;2025;48.260;16.432;2023-05-02T15:00:17;12.05;;;6.38;;
4021;SDS011;2025;48.260;16.432;2023-05-02T15:02:44;10.52;;;6.35;;
4021;SDS011;2025;48.260;16.432;2023-05-02T15:05:12;11.55;;;5.72;;
4021;SDS011;2025;48.260;16.432;2023-05-02T15:07:39;11.93;;;6.32;;
4021;SDS011;2025;48.260;16.432;2023-05-02T15:10:06;11.18;;;6.03;;
4021;SDS011;2025;48.260;16.432;2023-05-02T15:12:34;10.20;;;5.95;;
4021;SDS011;2025;48.260;16.432;2023-05-02T15:15:01;10.40;;;6.38;;
4021;SDS011;2025;48.260;16.432;2023-05-02T15:17:30;10.32;;;6.22;;
4021;SDS011;2025;48.260;16.432;2023-05-02T15:19:57;12.38;;;6.45;;
4021;SDS011;2025;48.260;16.432;2023-05-02T15:22:23;11.52;;;6.30;;
4021;SDS011;2025;48.260;16.432;2023-05-02T15:24:50;10.02;;;5.93;;